sensor_id;sensor_type;location;lat;lon;timestamp;P1;durP1;ratioP1;P2;durP2;ratioP2
83020;SDS011;72837;47.418;19.394;2023-09-30T00:02:36;15.23;;;6.95;;
83020;SDS011;72837;47.418;19.394;2023-09-30T00:05:03;13.60;;;7.20;;
83020;SDS011;72837;47.418;19.394;2023-09-30T00:07:30;12.70;;;7.30;;
83020;SDS011;72837;47.418;19.394;2023-09-30T00:09:58;14.50;;;7.15;;
83020;SDS011;72837;47.418;19.394;2023-09-30T00:12:26;16.02;;;6.53;;
83020;SDS011;72837;47.418;19.394;2023-09-30T00:14:54;14.48;;;7.15;;
83020;SDS011;72837;47.418;19.394;2023-09-30T00:17:21;14.85;;;7.32;;
83020;SDS011;72837;47.418;19.394;2023-09-30T00:19:49;13.02;;;6.97;;
83020;SDS011;72837;47.418;19.394;2023-09-30T00:22:16;15.60;;;6.72;;
83020;SDS011;72837;47.418;19.394;2023-09-30T00:24:43;14.32;;;6.93;;
83020;SDS011;72837;47.418;19.394;2023-09-30T00:27:10;14.00;;;7.25;;
83020;SDS011;72837;47.418;19.394;2023-09-30T00:29:38;18.65;;;7.53;;
83020;SDS011;72837;47.418;19.394;2023-09-30T00:32:06;14.38;;;7.07;;
83020;SDS011;72837;47.418;19.394;2023-09-30T00:34:33;12.32;;;7.15;;
83020;SDS011;72837;47.418;19.394;2023-09-30T00:37:02;13.55;;;7.43;;
83020;SDS011;72837;47.418;19.394;2023-09-30T00:39:29;12.88;;;7.25;;
83020;SDS011;72837;47.418;19.394;2023-09-30T00:41:57;12.93;;;7.88;;
83020;SDS011;72837;47.418;19.394;2023-09-30T00:44:28;15.73;;;7.53;;
83020;SDS011;72837;47.418;19.394;2023-09-30T00:46:55;15.25;;;8.23;;
83020;SDS011;72837;47.418;19.394;2023-09-30T00:49:23;16.38;;;7.50;;
83020;SDS011;72837;47.418;19.394;2023-09-30T00:51:52;13.68;;;7.82;;
83020;SDS011;72837;47.418;19.394;2023-09-30T00:54:21;12.40;;;7.10;;
83020;SDS011;72837;47.418;19.394;2023-09-30T00:56:51;14.20;;;7.63;;
83020;SDS011;72837;47.418;19.394;2023-09-30T00:59:22;14.80;;;8.07;;
83020;SDS011;72837;47.418;19.394;2023-09-30T01:01:54;16.45;;;7.65;;
83020;SDS011;72837;47.418;19.394;2023-09-30T01:04:24;12.30;;;7.53;;
83020;SDS011;72837;47.418;19.394;2023-09-30T01:06:53;15.82;;;9.23;;
83020;SDS011;72837;47.418;19.394;2023-09-30T01:09:21;16.55;;;8.05;;
83020;SDS011;72837;47.418;19.394;2023-09-30T01:11:48;14.82;;;8.13;;
83020;SDS011;72837;47.418;19.394;2023-09-30T01:14:26;15.35;;;9.25;;
83020;SDS011;72837;47.418;19.394;2023-09-30T01:16:58;14.35;;;8.20;;
83020;SDS011;72837;47.418;19.394;2023-09-30T01:19:26;14.23;;;7.95;;
83020;SDS011;72837;47.418;19.394;2023-09-30T01:24:27;15.50;;;8.40;;
83020;SDS011;72837;47.418;19.394;2023-09-30T01:26:56;13.70;;;6.97;;
83020;SDS011;72837;47.418;19.394;2023-09-30T01:29:24;13.23;;;7.10;;
83020;SDS011;72837;47.418;19.394;2023-09-30T01:31:55;13.82;;;7.60;;
83020;SDS011;72837;47.418;19.394;2023-09-30T01:34:22;13.55;;;7.85;;
83020;SDS011;72837;47.418;19.394;2023-09-30T01:36:49;15.73;;;8.07;;
83020;SDS011;72837;47.418;19.394;2023-09-30T01:39:17;14.27;;;8.00;;
83020;SDS011;72837;47.418;19.394;2023-09-30T01:41:44;14.27;;;7.68;;
83020;SDS011;72837;47.418;19.394;2023-09-30T01:44:12;14.38;;;8.07;;
83020;SDS011;72837;47.418;19.394;2023-09-30T01:46:39;13.88;;;8.32;;
83020;SDS011;72837;47.418;19.394;2023-09-30T01:49:06;14.13;;;7.93;;
83020;SDS011;72837;47.418;19.394;2023-09-30T01:51:33;14.80;;;7.82;;
83020;SDS011;72837;47.418;19.394;2023-09-30T01:54:00;13.68;;;7.57;;
83020;SDS011;72837;47.418;19.394;2023-09-30T01:56:28;14.27;;;7.35;;
83020;SDS011;72837;47.418;19.394;2023-09-30T01:58:57;16.30;;;7.70;;
83020;SDS011;72837;47.418;19.394;2023-09-30T02:01:25;15.07;;;8.50;;
83020;SDS011;72837;47.418;19.394;2023-09-30T02:03:53;16.45;;;7.82;;
83020;SDS011;72837;47.418;19.394;2023-09-30T02:06:20;15.77;;;7.82;;
83020;SDS011;72837;47.418;19.394;2023-09-30T02:08:47;14.48;;;7.80;;
83020;SDS011;72837;47.418;19.394;2023-09-30T02:11:14;14.52;;;7.80;;
83020;SDS011;72837;47.418;19.394;2023-09-30T02:16:11;16.85;;;8.25;;
83020;SDS011;72837;47.418;19.394;2023-09-30T02:18:42;15.25;;;7.93;;
83020;SDS011;72837;47.418;19.394;2023-09-30T02:21:12;15.60;;;7.25;;
83020;SDS011;72837;47.418;19.394;2023-09-30T02:23:39;15.65;;;8.77;;
83020;SDS011;72837;47.418;19.394;2023-09-30T02:26:06;18.60;;;8.77;;
83020;SDS011;72837;47.418;19.394;2023-09-30T02:28:33;13.38;;;7.60;;
83020;SDS011;72837;47.418;19.394;2023-09-30T02:31:01;19.10;;;8.75;;
83020;SDS011;72837;47.418;19.394;2023-09-30T02:33:31;14.80;;;7.97;;
83020;SDS011;72837;47.418;19.394;2023-09-30T02:35:59;16.95;;;8.43;;
83020;SDS011;72837;47.418;19.394;2023-09-30T02:38:26;14.80;;;8.55;;
83020;SDS011;72837;47.418;19.394;2023-09-30T02:40:54;14.18;;;7.80;;
83020;SDS011;72837;47.418;19.394;2023-09-30T02:43:21;15.55;;;8.43;;
83020;SDS011;72837;47.418;19.394;2023-09-30T02:45:49;16.15;;;7.78;;
83020;SDS011;72837;47.418;19.394;2023-09-30T02:48:17;15.27;;;8.95;;
83020;SDS011;72837;47.418;19.394;2023-09-30T02:50:45;16.52;;;9.23;;
83020;SDS011;72837;47.418;19.394;2023-09-30T02:53:12;13.52;;;7.78;;
83020;SDS011;72837;47.418;19.394;2023-09-30T02:55:40;14.27;;;8.40;;
83020;SDS011;72837;47.418;19.394;2023-09-30T02:58:10;15.20;;;7.82;;
83020;SDS011;72837;47.418;19.394;2023-09-30T03:00:37;16.55;;;8.18;;
83020;SDS011;72837;47.418;19.394;2023-09-30T03:03:04;14.00;;;7.97;;
83020;SDS011;72837;47.418;19.394;2023-09-30T03:05:32;17.20;;;8.73;;
83020;SDS011;72837;47.418;19.394;2023-09-30T03:08:00;20.55;;;9.48;;
83020;SDS011;72837;47.418;19.394;2023-09-30T03:10:28;13.27;;;7.80;;
83020;SDS011;72837;47.418;19.394;2023-09-30T03:12:56;16.00;;;9.35;;
83020;SDS011;72837;47.418;19.394;2023-09-30T03:15:28;19.08;;;9.18;;
83020;SDS011;72837;47.418;19.394;2023-09-30T03:18:00;17.63;;;9.60;;
83020;SDS011;72837;47.418;19.394;2023-09-30T03:20:27;16.50;;;9.00;;
83020;SDS011;72837;47.418;19.394;2023-09-30T03:22:54;14.85;;;8.30;;
83020;SDS011;72837;47.418;19.394;2023-09-30T03:25:23;15.48;;;8.73;;
83020;SDS011;72837;47.418;19.394;2023-09-30T03:27:50;15.98;;;8.10;;
83020;SDS011;72837;47.418;19.394;2023-09-30T03:30:17;17.98;;;8.48;;
83020;SDS011;72837;47.418;19.394;2023-09-30T03:32:47;15.95;;;8.35;;
83020;SDS011;72837;47.418;19.394;2023-09-30T03:35:15;15.40;;;8.25;;
83020;SDS011;72837;47.418;19.394;2023-09-30T03:37:46;18.50;;;8.73;;
83020;SDS011;72837;47.418;19.394;2023-09-30T03:40:14;16.00;;;8.25;;
83020;SDS011;72837;47.418;19.394;2023-09-30T03:42:46;13.77;;;8.10;;
83020;SDS011;72837;47.418;19.394;2023-09-30T03:45:17;18.55;;;8.82;;
83020;SDS011;72837;47.418;19.394;2023-09-30T03:47:45;15.80;;;8.38;;
83020;SDS011;72837;47.418;19.394;2023-09-30T03:50:15;13.25;;;8.30;;
83020;SDS011;72837;47.418;19.394;2023-09-30T03:52:42;17.65;;;7.97;;
83020;SDS011;72837;47.418;19.394;2023-09-30T03:55:14;17.83;;;8.43;;
83020;SDS011;72837;47.418;19.394;2023-09-30T03:57:43;16.15;;;8.70;;
83020;SDS011;72837;47.418;19.394;2023-09-30T04:00:16;15.43;;;8.55;;
83020;SDS011;72837;47.418;19.394;2023-09-30T04:02:47;14.25;;;8.05;;
83020;SDS011;72837;47.418;19.394;2023-09-30T04:05:18;17.13;;;9.52;;
83020;SDS011;72837;47.418;19.394;2023-09-30T04:07:46;16.90;;;11.27;;
83020;SDS011;72837;47.418;19.394;2023-09-30T04:10:14;16.05;;;9.52;;
83020;SDS011;72837;47.418;19.394;2023-09-30T04:12:41;18.23;;;10.02;;
83020;SDS011;72837;47.418;19.394;2023-09-30T04:15:08;18.50;;;10.30;;
83020;SDS011;72837;47.418;19.394;2023-09-30T04:17:39;17.98;;;10.40;;
83020;SDS011;72837;47.418;19.394;2023-09-30T04:20:07;16.70;;;10.48;;
83020;SDS011;72837;47.418;19.394;2023-09-30T04:22:37;18.30;;;10.20;;
83020;SDS011;72837;47.418;19.394;2023-09-30T04:25:05;20.23;;;9.85;;
83020;SDS011;72837;47.418;19.394;2023-09-30T04:27:35;16.90;;;9.27;;
83020;SDS011;72837;47.418;19.394;2023-09-30T04:30:04;16.15;;;9.82;;
83020;SDS011;72837;47.418;19.394;2023-09-30T04:32:36;18.35;;;10.27;;
83020;SDS011;72837;47.418;19.394;2023-09-30T04:35:05;16.23;;;9.57;;
83020;SDS011;72837;47.418;19.394;2023-09-30T04:37:34;21.15;;;10.38;;
83020;SDS011;72837;47.418;19.394;2023-09-30T04:40:05;18.20;;;9.77;;
83020;SDS011;72837;47.418;19.394;2023-09-30T04:42:53;18.55;;;9.80;;
83020;SDS011;72837;47.418;19.394;2023-09-30T04:45:26;16.60;;;9.75;;
83020;SDS011;72837;47.418;19.394;2023-09-30T04:47:54;17.88;;;10.00;;
83020;SDS011;72837;47.418;19.394;2023-09-30T04:50:25;18.55;;;10.30;;
83020;SDS011;72837;47.418;19.394;2023-09-30T04:52:52;19.10;;;10.57;;
83020;SDS011;72837;47.418;19.394;2023-09-30T04:55:21;16.70;;;9.70;;
83020;SDS011;72837;47.418;19.394;2023-09-30T04:57:48;19.13;;;11.50;;
83020;SDS011;72837;47.418;19.394;2023-09-30T05:00:18;16.92;;;9.88;;
83020;SDS011;72837;47.418;19.394;2023-09-30T05:02:54;16.67;;;9.77;;
83020;SDS011;72837;47.418;19.394;2023-09-30T05:05:23;22.58;;;10.15;;
83020;SDS011;72837;47.418;19.394;2023-09-30T05:07:50;18.42;;;9.77;;
83020;SDS011;72837;47.418;19.394;2023-09-30T05:10:18;16.25;;;9.55;;
83020;SDS011;72837;47.418;19.394;2023-09-30T05:12:45;17.52;;;10.18;;
83020;SDS011;72837;47.418;19.394;2023-09-30T05:15:15;22.52;;;11.90;;
83020;SDS011;72837;47.418;19.394;2023-09-30T05:17:44;17.77;;;9.93;;
83020;SDS011;72837;47.418;19.394;2023-09-30T05:20:12;18.95;;;10.50;;
83020;SDS011;72837;47.418;19.394;2023-09-30T05:22:40;19.25;;;10.75;;
83020;SDS011;72837;47.418;19.394;2023-09-30T05:25:13;19.70;;;10.90;;
83020;SDS011;72837;47.418;19.394;2023-09-30T05:27:43;17.40;;;10.20;;
83020;SDS011;72837;47.418;19.394;2023-09-30T05:32:42;17.10;;;8.90;;
83020;SDS011;72837;47.418;19.394;2023-09-30T05:35:10;16.35;;;9.70;;
83020;SDS011;72837;47.418;19.394;2023-09-30T05:37:41;19.80;;;10.80;;
83020;SDS011;72837;47.418;19.394;2023-09-30T05:40:09;20.10;;;10.63;;
83020;SDS011;72837;47.418;19.394;2023-09-30T05:42:51;19.77;;;9.80;;
83020;SDS011;72837;47.418;19.394;2023-09-30T05:45:30;20.83;;;9.98;;
83020;SDS011;72837;47.418;19.394;2023-09-30T05:48:02;18.45;;;10.85;;
83020;SDS011;72837;47.418;19.394;2023-09-30T05:50:33;19.13;;;10.88;;
83020;SDS011;72837;47.418;19.394;2023-09-30T05:53:03;16.77;;;10.25;;
83020;SDS011;72837;47.418;19.394;2023-09-30T05:55:34;17.88;;;9.75;;
83020;SDS011;72837;47.418;19.394;2023-09-30T05:58:02;18.05;;;10.27;;
83020;SDS011;72837;47.418;19.394;2023-09-30T06:00:30;19.80;;;10.00;;
83020;SDS011;72837;47.418;19.394;2023-09-30T06:02:58;24.25;;;9.80;;
83020;SDS011;72837;47.418;19.394;2023-09-30T06:05:26;18.77;;;10.23;;
83020;SDS011;72837;47.418;19.394;2023-09-30T06:07:57;16.77;;;10.57;;
83020;SDS011;72837;47.418;19.394;2023-09-30T06:10:27;16.95;;;9.63;;
83020;SDS011;72837;47.418;19.394;2023-09-30T06:12:54;20.40;;;10.25;;
83020;SDS011;72837;47.418;19.394;2023-09-30T06:15:24;22.35;;;10.75;;
83020;SDS011;72837;47.418;19.394;2023-09-30T06:17:56;17.50;;;9.55;;
83020;SDS011;72837;47.418;19.394;2023-09-30T06:20:26;17.92;;;9.93;;
83020;SDS011;72837;47.418;19.394;2023-09-30T06:22:55;18.63;;;10.05;;
83020;SDS011;72837;47.418;19.394;2023-09-30T06:25:22;18.70;;;8.90;;
83020;SDS011;72837;47.418;19.394;2023-09-30T06:27:54;16.75;;;8.85;;
83020;SDS011;72837;47.418;19.394;2023-09-30T06:30:22;17.02;;;10.40;;
83020;SDS011;72837;47.418;19.394;2023-09-30T06:32:58;19.90;;;10.48;;
83020;SDS011;72837;47.418;19.394;2023-09-30T06:35:32;20.58;;;9.75;;
83020;SDS011;72837;47.418;19.394;2023-09-30T06:38:07;18.52;;;9.73;;
83020;SDS011;72837;47.418;19.394;2023-09-30T06:40:35;22.05;;;9.77;;
83020;SDS011;72837;47.418;19.394;2023-09-30T06:43:06;19.00;;;9.70;;
83020;SDS011;72837;47.418;19.394;2023-09-30T06:45:34;18.77;;;10.10;;
83020;SDS011;72837;47.418;19.394;2023-09-30T06:48:09;24.58;;;9.63;;
83020;SDS011;72837;47.418;19.394;2023-09-30T06:50:43;17.00;;;10.00;;
83020;SDS011;72837;47.418;19.394;2023-09-30T06:53:16;25.15;;;10.93;;
83020;SDS011;72837;47.418;19.394;2023-09-30T06:58:11;18.73;;;8.70;;
83020;SDS011;72837;47.418;19.394;2023-09-30T07:00:40;17.30;;;8.25;;
83020;SDS011;72837;47.418;19.394;2023-09-30T07:03:09;17.20;;;7.78;;
83020;SDS011;72837;47.418;19.394;2023-09-30T07:05:36;20.48;;;7.63;;
83020;SDS011;72837;47.418;19.394;2023-09-30T07:08:04;13.70;;;7.43;;
83020;SDS011;72837;47.418;19.394;2023-09-30T07:13:01;14.60;;;7.20;;
83020;SDS011;72837;47.418;19.394;2023-09-30T07:15:30;14.40;;;7.55;;
83020;SDS011;72837;47.418;19.394;2023-09-30T07:17:57;12.93;;;6.88;;
83020;SDS011;72837;47.418;19.394;2023-09-30T07:20:25;11.05;;;6.95;;
83020;SDS011;72837;47.418;19.394;2023-09-30T07:22:53;13.05;;;6.97;;
83020;SDS011;72837;47.418;19.394;2023-09-30T07:25:40;17.00;;;7.00;;
83020;SDS011;72837;47.418;19.394;2023-09-30T07:28:08;13.70;;;6.65;;
83020;SDS011;72837;47.418;19.394;2023-09-30T07:30:38;14.70;;;6.68;;
83020;SDS011;72837;47.418;19.394;2023-09-30T07:33:07;18.20;;;7.05;;
83020;SDS011;72837;47.418;19.394;2023-09-30T07:35:34;12.90;;;6.78;;
83020;SDS011;72837;47.418;19.394;2023-09-30T07:38:02;14.30;;;7.25;;
83020;SDS011;72837;47.418;19.394;2023-09-30T07:40:31;13.30;;;7.72;;
83020;SDS011;72837;47.418;19.394;2023-09-30T07:43:00;14.48;;;6.90;;
83020;SDS011;72837;47.418;19.394;2023-09-30T07:45:27;13.95;;;7.35;;
83020;SDS011;72837;47.418;19.394;2023-09-30T07:47:55;12.95;;;7.10;;
83020;SDS011;72837;47.418;19.394;2023-09-30T07:50:25;12.98;;;6.88;;
83020;SDS011;72837;47.418;19.394;2023-09-30T07:52:53;14.98;;;6.97;;
83020;SDS011;72837;47.418;19.394;2023-09-30T07:55:21;18.95;;;7.47;;
83020;SDS011;72837;47.418;19.394;2023-09-30T07:57:48;17.88;;;7.43;;
83020;SDS011;72837;47.418;19.394;2023-09-30T08:00:16;17.05;;;8.25;;
83020;SDS011;72837;47.418;19.394;2023-09-30T08:02:44;19.17;;;8.77;;
83020;SDS011;72837;47.418;19.394;2023-09-30T08:07:39;15.45;;;7.25;;
83020;SDS011;72837;47.418;19.394;2023-09-30T08:10:06;14.10;;;7.00;;
83020;SDS011;72837;47.418;19.394;2023-09-30T08:12:39;15.90;;;8.18;;
83020;SDS011;72837;47.418;19.394;2023-09-30T08:15:09;14.95;;;7.90;;
83020;SDS011;72837;47.418;19.394;2023-09-30T08:17:39;18.30;;;8.77;;
83020;SDS011;72837;47.418;19.394;2023-09-30T08:20:07;14.75;;;7.95;;
83020;SDS011;72837;47.418;19.394;2023-09-30T08:22:38;15.27;;;8.55;;
83020;SDS011;72837;47.418;19.394;2023-09-30T08:25:06;14.27;;;8.77;;
83020;SDS011;72837;47.418;19.394;2023-09-30T08:27:35;16.90;;;8.63;;
83020;SDS011;72837;47.418;19.394;2023-09-30T08:30:05;18.35;;;9.75;;
83020;SDS011;72837;47.418;19.394;2023-09-30T08:32:35;15.35;;;8.93;;
83020;SDS011;72837;47.418;19.394;2023-09-30T08:35:04;16.38;;;8.98;;
83020;SDS011;72837;47.418;19.394;2023-09-30T08:37:32;17.90;;;9.20;;
83020;SDS011;72837;47.418;19.394;2023-09-30T08:39:59;17.35;;;9.45;;
83020;SDS011;72837;47.418;19.394;2023-09-30T08:42:28;20.00;;;9.93;;
83020;SDS011;72837;47.418;19.394;2023-09-30T08:45:01;18.27;;;9.82;;
83020;SDS011;72837;47.418;19.394;2023-09-30T08:47:33;16.23;;;9.48;;
83020;SDS011;72837;47.418;19.394;2023-09-30T08:50:02;15.13;;;9.13;;
83020;SDS011;72837;47.418;19.394;2023-09-30T08:52:41;18.20;;;8.50;;
83020;SDS011;72837;47.418;19.394;2023-09-30T08:55:09;16.55;;;8.75;;
83020;SDS011;72837;47.418;19.394;2023-09-30T08:57:41;15.05;;;7.55;;
83020;SDS011;72837;47.418;19.394;2023-09-30T09:00:11;13.27;;;8.15;;
83020;SDS011;72837;47.418;19.394;2023-09-30T09:02:40;18.30;;;7.30;;
83020;SDS011;72837;47.418;19.394;2023-09-30T09:07:39;12.50;;;6.70;;
83020;SDS011;72837;47.418;19.394;2023-09-30T09:10:08;14.88;;;6.60;;
83020;SDS011;72837;47.418;19.394;2023-09-30T09:12:37;13.63;;;7.28;;
83020;SDS011;72837;47.418;19.394;2023-09-30T09:15:19;17.33;;;7.05;;
83020;SDS011;72837;47.418;19.394;2023-09-30T09:17:49;13.45;;;6.85;;
83020;SDS011;72837;47.418;19.394;2023-09-30T09:20:20;13.32;;;7.43;;
83020;SDS011;72837;47.418;19.394;2023-09-30T09:22:51;15.55;;;7.43;;
83020;SDS011;72837;47.418;19.394;2023-09-30T09:25:21;14.90;;;7.15;;
83020;SDS011;72837;47.418;19.394;2023-09-30T09:27:52;11.63;;;6.75;;
83020;SDS011;72837;47.418;19.394;2023-09-30T09:30:25;13.60;;;6.72;;
83020;SDS011;72837;47.418;19.394;2023-09-30T09:33:06;14.73;;;6.68;;
83020;SDS011;72837;47.418;19.394;2023-09-30T09:38:02;13.25;;;6.45;;
83020;SDS011;72837;47.418;19.394;2023-09-30T09:40:32;16.60;;;6.10;;
83020;SDS011;72837;47.418;19.394;2023-09-30T09:43:02;12.77;;;6.82;;
83020;SDS011;72837;47.418;19.394;2023-09-30T09:45:33;13.73;;;6.80;;
83020;SDS011;72837;47.418;19.394;2023-09-30T09:48:02;12.10;;;6.82;;
83020;SDS011;72837;47.418;19.394;2023-09-30T09:50:31;12.48;;;5.90;;
83020;SDS011;72837;47.418;19.394;2023-09-30T09:52:59;11.18;;;6.30;;
83020;SDS011;72837;47.418;19.394;2023-09-30T09:57:55;14.68;;;5.50;;
83020;SDS011;72837;47.418;19.394;2023-09-30T10:00:25;14.25;;;5.63;;
83020;SDS011;72837;47.418;19.394;2023-09-30T10:02:54;12.43;;;5.57;;
83020;SDS011;72837;47.418;19.394;2023-09-30T10:05:21;13.15;;;6.10;;
83020;SDS011;72837;47.418;19.394;2023-09-30T10:07:53;12.52;;;6.03;;
83020;SDS011;72837;47.418;19.394;2023-09-30T10:10:24;11.82;;;6.20;;
83020;SDS011;72837;47.418;19.394;2023-09-30T10:12:52;15.30;;;6.45;;
83020;SDS011;72837;47.418;19.394;2023-09-30T10:18:00;10.75;;;5.85;;
83020;SDS011;72837;47.418;19.394;2023-09-30T10:20:40;12.98;;;5.88;;
83020;SDS011;72837;47.418;19.394;2023-09-30T10:25:47;15.60;;;5.90;;
83020;SDS011;72837;47.418;19.394;2023-09-30T10:36:30;14.98;;;6.78;;
83020;SDS011;72837;47.418;19.394;2023-09-30T10:38:59;15.32;;;6.30;;
83020;SDS011;72837;47.418;19.394;2023-09-30T10:49:48;12.40;;;5.95;;
83020;SDS011;72837;47.418;19.394;2023-09-30T10:52:22;16.13;;;6.38;;
83020;SDS011;72837;47.418;19.394;2023-09-30T10:54:50;11.73;;;5.65;;
83020;SDS011;72837;47.418;19.394;2023-09-30T10:57:27;14.05;;;6.68;;
83020;SDS011;72837;47.418;19.394;2023-09-30T11:00:11;10.57;;;5.88;;
83020;SDS011;72837;47.418;19.394;2023-09-30T11:02:50;12.82;;;6.00;;
83020;SDS011;72837;47.418;19.394;2023-09-30T11:05:20;12.15;;;6.07;;
83020;SDS011;72837;47.418;19.394;2023-09-30T11:08:08;19.08;;;6.60;;
83020;SDS011;72837;47.418;19.394;2023-09-30T11:10:37;11.43;;;6.03;;
83020;SDS011;72837;47.418;19.394;2023-09-30T11:13:04;14.50;;;5.78;;
83020;SDS011;72837;47.418;19.394;2023-09-30T11:18:12;14.55;;;6.43;;
83020;SDS011;72837;47.418;19.394;2023-09-30T11:20:44;11.88;;;6.18;;
83020;SDS011;72837;47.418;19.394;2023-09-30T11:25:39;13.05;;;5.88;;
83020;SDS011;72837;47.418;19.394;2023-09-30T11:28:14;13.63;;;5.65;;
83020;SDS011;72837;47.418;19.394;2023-09-30T11:30:53;11.73;;;5.55;;
83020;SDS011;72837;47.418;19.394;2023-09-30T11:33:29;12.80;;;5.30;;
83020;SDS011;72837;47.418;19.394;2023-09-30T11:38:30;12.68;;;5.80;;
83020;SDS011;72837;47.418;19.394;2023-09-30T11:41:06;12.82;;;5.95;;
83020;SDS011;72837;47.418;19.394;2023-09-30T11:43:33;15.45;;;6.05;;
83020;SDS011;72837;47.418;19.394;2023-09-30T11:46:11;12.40;;;5.90;;
83020;SDS011;72837;47.418;19.394;2023-09-30T11:48:57;14.57;;;5.55;;
83020;SDS011;72837;47.418;19.394;2023-09-30T11:51:27;14.25;;;5.75;;
83020;SDS011;72837;47.418;19.394;2023-09-30T11:53:55;11.55;;;5.25;;
83020;SDS011;72837;47.418;19.394;2023-09-30T11:56:24;11.27;;;4.97;;
83020;SDS011;72837;47.418;19.394;2023-09-30T11:58:56;10.73;;;5.70;;
83020;SDS011;72837;47.418;19.394;2023-09-30T12:01:27;10.95;;;5.47;;
83020;SDS011;72837;47.418;19.394;2023-09-30T12:03:58;12.30;;;6.15;;
83020;SDS011;72837;47.418;19.394;2023-09-30T12:06:26;15.05;;;6.82;;
83020;SDS011;72837;47.418;19.394;2023-09-30T12:08:54;11.30;;;6.00;;
83020;SDS011;72837;47.418;19.394;2023-09-30T12:11:21;14.52;;;6.32;;
83020;SDS011;72837;47.418;19.394;2023-09-30T12:13:50;13.18;;;7.15;;
83020;SDS011;72837;47.418;19.394;2023-09-30T12:16:18;11.85;;;6.63;;
83020;SDS011;72837;47.418;19.394;2023-09-30T12:18:45;19.67;;;6.75;;
83020;SDS011;72837;47.418;19.394;2023-09-30T12:21:13;16.20;;;7.75;;
83020;SDS011;72837;47.418;19.394;2023-09-30T12:23:41;19.98;;;7.05;;
83020;SDS011;72837;47.418;19.394;2023-09-30T12:26:08;15.63;;;7.05;;
83020;SDS011;72837;47.418;19.394;2023-09-30T12:28:41;14.50;;;7.28;;
83020;SDS011;72837;47.418;19.394;2023-09-30T12:31:09;16.77;;;7.38;;
83020;SDS011;72837;47.418;19.394;2023-09-30T12:33:38;14.23;;;7.30;;
83020;SDS011;72837;47.418;19.394;2023-09-30T12:36:05;12.13;;;7.32;;
83020;SDS011;72837;47.418;19.394;2023-09-30T12:38:33;15.27;;;7.18;;
83020;SDS011;72837;47.418;19.394;2023-09-30T12:41:00;15.93;;;7.22;;
83020;SDS011;72837;47.418;19.394;2023-09-30T12:43:27;15.85;;;7.28;;
83020;SDS011;72837;47.418;19.394;2023-09-30T12:45:54;12.98;;;7.50;;
83020;SDS011;72837;47.418;19.394;2023-09-30T12:48:22;15.40;;;7.07;;
83020;SDS011;72837;47.418;19.394;2023-09-30T12:50:49;12.95;;;7.20;;
83020;SDS011;72837;47.418;19.394;2023-09-30T12:53:17;17.58;;;7.72;;
83020;SDS011;72837;47.418;19.394;2023-09-30T12:55:45;14.30;;;8.02;;
83020;SDS011;72837;47.418;19.394;2023-09-30T12:58:12;20.00;;;7.55;;
83020;SDS011;72837;47.418;19.394;2023-09-30T13:00:39;17.02;;;8.02;;
83020;SDS011;72837;47.418;19.394;2023-09-30T13:03:07;13.85;;;7.47;;
83020;SDS011;72837;47.418;19.394;2023-09-30T13:05:37;16.02;;;7.75;;
83020;SDS011;72837;47.418;19.394;2023-09-30T13:08:06;14.10;;;7.32;;
83020;SDS011;72837;47.418;19.394;2023-09-30T13:10:33;16.48;;;8.65;;
83020;SDS011;72837;47.418;19.394;2023-09-30T13:13:00;14.85;;;8.50;;
83020;SDS011;72837;47.418;19.394;2023-09-30T13:15:27;18.75;;;8.18;;
83020;SDS011;72837;47.418;19.394;2023-09-30T13:17:54;14.77;;;7.82;;
83020;SDS011;72837;47.418;19.394;2023-09-30T13:20:21;15.57;;;8.32;;
83020;SDS011;72837;47.418;19.394;2023-09-30T13:22:48;15.27;;;8.95;;
83020;SDS011;72837;47.418;19.394;2023-09-30T13:25:17;15.75;;;7.93;;
83020;SDS011;72837;47.418;19.394;2023-09-30T13:27:44;14.00;;;8.00;;
83020;SDS011;72837;47.418;19.394;2023-09-30T13:30:12;16.15;;;8.95;;
83020;SDS011;72837;47.418;19.394;2023-09-30T13:32:40;16.25;;;8.70;;
83020;SDS011;72837;47.418;19.394;2023-09-30T13:36:11;13.02;;;7.93;;
83020;SDS011;72837;47.418;19.394;2023-09-30T13:43:19;12.55;;;8.35;;
83020;SDS011;72837;47.418;19.394;2023-09-30T13:45:56;15.45;;;8.32;;
83020;SDS011;72837;47.418;19.394;2023-09-30T13:48:55;15.70;;;8.88;;
83020;SDS011;72837;47.418;19.394;2023-09-30T13:52:01;14.27;;;8.23;;
83020;SDS011;72837;47.418;19.394;2023-09-30T13:54:32;16.05;;;8.13;;
83020;SDS011;72837;47.418;19.394;2023-09-30T13:57:12;13.88;;;8.23;;
83020;SDS011;72837;47.418;19.394;2023-09-30T13:59:44;15.50;;;8.40;;
83020;SDS011;72837;47.418;19.394;2023-09-30T14:02:20;14.43;;;8.20;;
83020;SDS011;72837;47.418;19.394;2023-09-30T14:04:53;16.30;;;9.40;;
83020;SDS011;72837;47.418;19.394;2023-09-30T14:07:31;14.85;;;8.77;;
83020;SDS011;72837;47.418;19.394;2023-09-30T14:10:04;15.13;;;9.25;;
83020;SDS011;72837;47.418;19.394;2023-09-30T14:12:40;15.45;;;8.55;;
83020;SDS011;72837;47.418;19.394;2023-09-30T14:15:16;18.25;;;8.63;;
83020;SDS011;72837;47.418;19.394;2023-09-30T14:17:55;18.70;;;9.77;;
83020;SDS011;72837;47.418;19.394;2023-09-30T14:20:57;14.52;;;8.57;;
83020;SDS011;72837;47.418;19.394;2023-09-30T14:24:01;13.25;;;7.22;;
83020;SDS011;72837;47.418;19.394;2023-09-30T14:27:07;14.18;;;7.07;;
83020;SDS011;72837;47.418;19.394;2023-09-30T14:29:40;13.23;;;7.18;;
83020;SDS011;72837;47.418;19.394;2023-09-30T14:32:12;13.00;;;6.60;;
83020;SDS011;72837;47.418;19.394;2023-09-30T14:35:16;10.63;;;6.68;;
83020;SDS011;72837;47.418;19.394;2023-09-30T14:38:14;13.48;;;7.53;;
83020;SDS011;72837;47.418;19.394;2023-09-30T14:40:45;10.80;;;6.40;;
83020;SDS011;72837;47.418;19.394;2023-09-30T14:43:15;16.90;;;7.03;;
83020;SDS011;72837;47.418;19.394;2023-09-30T14:45:56;17.00;;;7.63;;
83020;SDS011;72837;47.418;19.394;2023-09-30T14:48:32;12.30;;;7.07;;
83020;SDS011;72837;47.418;19.394;2023-09-30T14:51:28;14.98;;;6.47;;
83020;SDS011;72837;47.418;19.394;2023-09-30T14:53:55;11.60;;;7.38;;
83020;SDS011;72837;47.418;19.394;2023-09-30T14:56:24;12.95;;;7.43;;
83020;SDS011;72837;47.418;19.394;2023-09-30T14:58:51;13.60;;;7.32;;
83020;SDS011;72837;47.418;19.394;2023-09-30T15:01:19;12.10;;;7.53;;
83020;SDS011;72837;47.418;19.394;2023-09-30T15:06:15;18.05;;;8.50;;
83020;SDS011;72837;47.418;19.394;2023-09-30T15:08:42;14.73;;;8.23;;
83020;SDS011;72837;47.418;19.394;2023-09-30T15:11:13;17.05;;;7.93;;
83020;SDS011;72837;47.418;19.394;2023-09-30T15:13:44;14.68;;;7.95;;
83020;SDS011;72837;47.418;19.394;2023-09-30T15:16:19;12.38;;;6.90;;
83020;SDS011;72837;47.418;19.394;2023-09-30T15:18:48;13.25;;;7.75;;
83020;SDS011;72837;47.418;19.394;2023-09-30T15:21:16;13.98;;;8.43;;
83020;SDS011;72837;47.418;19.394;2023-09-30T15:26:11;13.18;;;7.95;;
83020;SDS011;72837;47.418;19.394;2023-09-30T15:28:38;16.75;;;7.95;;
83020;SDS011;72837;47.418;19.394;2023-09-30T15:31:06;12.90;;;7.88;;
83020;SDS011;72837;47.418;19.394;2023-09-30T15:33:34;12.98;;;7.40;;
83020;SDS011;72837;47.418;19.394;2023-09-30T15:36:08;14.10;;;7.88;;
83020;SDS011;72837;47.418;19.394;2023-09-30T15:38:37;16.13;;;8.60;;
83020;SDS011;72837;47.418;19.394;2023-09-30T15:41:05;13.80;;;7.85;;
83020;SDS011;72837;47.418;19.394;2023-09-30T15:43:33;15.18;;;7.90;;